LPPD

Joao Paulo II Airport

ICAO Code LPPD
IATA Code PDL
Name Joao Paulo II Airport
Location Ponta Delgada, Azores, PT
Elevation 259 Feet / 78.9 Meters
Latitude 37.74119949
Longitude -25.69790077
METAR LPPD 020000Z 34010KT 310V010 9999 FEW006 BKN011 23/22 Q1027
Extra information Display Charts and CFS
Display NOTAMS
Runway Length Width Surface Elevation
12 8192 ft 148 ft ASP 259 ft
30 8192 ft 148 ft ASP 187 ft